sensor_id;sensor_type;location;lat;lon;timestamp;pressure;altitude;pressure_sealevel;temperature;humidity
76940;BME280;65885;55.848;35.916;2023-08-30T00:02:15;99240.38;;;15.41;79.96
76940;BME280;65885;55.848;35.916;2023-08-30T00:04:42;99239.03;;;15.48;80.05
76940;BME280;65885;55.848;35.916;2023-08-30T00:07:09;99236.84;;;15.55;79.86
76940;BME280;65885;55.848;35.916;2023-08-30T00:09:37;99237.34;;;15.62;79.63
76940;BME280;65885;55.848;35.916;2023-08-30T00:12:05;99240.44;;;15.68;79.50
76940;BME280;65885;55.848;35.916;2023-08-30T00:14:34;99242.69;;;15.74;79.32
76940;BME280;65885;55.848;35.916;2023-08-30T00:17:01;99253.72;;;15.81;79.18
76940;BME280;65885;55.848;35.916;2023-08-30T00:19:29;99253.50;;;15.84;78.83
76940;BME280;65885;55.848;35.916;2023-08-30T00:21:57;99253.50;;;15.84;78.79
76940;BME280;65885;55.848;35.916;2023-08-30T00:24:24;99249.38;;;15.80;78.70
76940;BME280;65885;55.848;35.916;2023-08-30T00:26:51;99253.16;;;15.76;78.68
76940;BME280;65885;55.848;35.916;2023-08-30T00:29:19;99249.94;;;15.71;78.69
76940;BME280;65885;55.848;35.916;2023-08-30T00:31:47;99244.97;;;15.66;78.91
76940;BME280;65885;55.848;35.916;2023-08-30T00:34:14;99244.31;;;15.63;79.01
76940;BME280;65885;55.848;35.916;2023-08-30T00:36:42;99247.16;;;15.60;79.23
76940;BME280;65885;55.848;35.916;2023-08-30T00:39:09;99241.13;;;15.58;79.41
76940;BME280;65885;55.848;35.916;2023-08-30T00:41:36;99247.31;;;15.57;79.48
76940;BME280;65885;55.848;35.916;2023-08-30T00:44:04;99251.88;;;15.54;79.56
76940;BME280;65885;55.848;35.916;2023-08-30T00:46:32;99247.53;;;15.53;79.54
76940;BME280;65885;55.848;35.916;2023-08-30T00:49:02;99250.38;;;15.50;79.71
76940;BME280;65885;55.848;35.916;2023-08-30T00:51:31;99250.56;;;15.47;79.63
76940;BME280;65885;55.848;35.916;2023-08-30T00:53:59;99245.28;;;15.47;79.83
76940;BME280;65885;55.848;35.916;2023-08-30T00:56:27;99250.47;;;15.49;79.96
76940;BME280;65885;55.848;35.916;2023-08-30T00:58:55;99253.09;;;15.49;79.99
76940;BME280;65885;55.848;35.916;2023-08-30T01:01:23;99253.31;;;15.46;80.01
76940;BME280;65885;55.848;35.916;2023-08-30T01:03:50;99250.88;;;15.43;79.92
76940;BME280;65885;55.848;35.916;2023-08-30T01:06:19;99252.25;;;15.48;80.29
76940;BME280;65885;55.848;35.916;2023-08-30T01:08:46;99255.06;;;15.60;80.54
76940;BME280;65885;55.848;35.916;2023-08-30T01:11:20;99257.88;;;15.71;80.47
76940;BME280;65885;55.848;35.916;2023-08-30T01:13:53;99257.09;;;15.83;80.34
76940;BME280;65885;55.848;35.916;2023-08-30T01:16:23;99257.31;;;15.93;80.12
76940;BME280;65885;55.848;35.916;2023-08-30T01:18:55;99254.28;;;15.99;79.61
76940;BME280;65885;55.848;35.916;2023-08-30T01:21:32;99246.88;;;16.04;79.43
76940;BME280;65885;55.848;35.916;2023-08-30T01:24:04;99242.22;;;16.07;79.18
76940;BME280;65885;55.848;35.916;2023-08-30T01:26:41;99244.13;;;16.05;78.71
76940;BME280;65885;55.848;35.916;2023-08-30T01:29:12;99254.81;;;16.04;78.88
76940;BME280;65885;55.848;35.916;2023-08-30T01:31:40;99247.19;;;15.99;78.81
76940;BME280;65885;55.848;35.916;2023-08-30T01:34:08;99251.75;;;15.97;78.77
76940;BME280;65885;55.848;35.916;2023-08-30T01:36:36;99239.75;;;15.92;78.85
76940;BME280;65885;55.848;35.916;2023-08-30T01:39:03;99241.84;;;15.87;79.02
76940;BME280;65885;55.848;35.916;2023-08-30T01:41:32;99241.22;;;15.83;78.93
76940;BME280;65885;55.848;35.916;2023-08-30T01:44:03;99234.25;;;15.82;79.20
76940;BME280;65885;55.848;35.916;2023-08-30T01:46:32;99231.59;;;15.82;79.46
76940;BME280;65885;55.848;35.916;2023-08-30T01:49:01;99235.19;;;15.81;79.79
76940;BME280;65885;55.848;35.916;2023-08-30T01:51:31;99241.44;;;15.80;79.55
76940;BME280;65885;55.848;35.916;2023-08-30T01:53:59;99226.59;;;15.77;79.93
76940;BME280;65885;55.848;35.916;2023-08-30T01:56:26;99236.44;;;15.75;79.87
76940;BME280;65885;55.848;35.916;2023-08-30T01:58:54;99232.28;;;15.71;80.10
76940;BME280;65885;55.848;35.916;2023-08-30T02:01:21;99234.94;;;15.71;79.94
76940;BME280;65885;55.848;35.916;2023-08-30T02:03:50;99235.88;;;15.70;80.13
76940;BME280;65885;55.848;35.916;2023-08-30T02:06:21;99240.88;;;15.75;80.32
76940;BME280;65885;55.848;35.916;2023-08-30T02:08:55;99249.25;;;15.81;80.42
76940;BME280;65885;55.848;35.916;2023-08-30T02:11:26;99250.66;;;15.87;80.37
76940;BME280;65885;55.848;35.916;2023-08-30T02:13:57;99257.13;;;15.96;80.23
76940;BME280;65885;55.848;35.916;2023-08-30T02:16:25;99257.66;;;16.01;80.20
76940;BME280;65885;55.848;35.916;2023-08-30T02:18:55;99255.44;;;16.07;79.78
76940;BME280;65885;55.848;35.916;2023-08-30T02:21:23;99243.72;;;16.12;79.38
76940;BME280;65885;55.848;35.916;2023-08-30T02:23:50;99256.09;;;16.11;78.96
76940;BME280;65885;55.848;35.916;2023-08-30T02:26:19;99251.97;;;16.07;78.95
76940;BME280;65885;55.848;35.916;2023-08-30T02:28:46;99255.78;;;16.03;78.61
76940;BME280;65885;55.848;35.916;2023-08-30T02:31:13;99250.78;;;15.98;78.72
76940;BME280;65885;55.848;35.916;2023-08-30T02:33:41;99258.94;;;15.95;78.90
76940;BME280;65885;55.848;35.916;2023-08-30T02:36:10;99258.16;;;15.93;79.15
76940;BME280;65885;55.848;35.916;2023-08-30T02:38:37;99265.38;;;15.91;79.24
76940;BME280;65885;55.848;35.916;2023-08-30T02:41:05;99267.44;;;15.86;79.28
76940;BME280;65885;55.848;35.916;2023-08-30T02:43:32;99267.66;;;15.83;79.43
76940;BME280;65885;55.848;35.916;2023-08-30T02:45:59;99252.94;;;15.79;79.66
76940;BME280;65885;55.848;35.916;2023-08-30T02:48:29;99240.78;;;15.76;79.71
76940;BME280;65885;55.848;35.916;2023-08-30T02:50:56;99241.84;;;15.74;79.90
76940;BME280;65885;55.848;35.916;2023-08-30T02:53:25;99243.81;;;15.70;80.04
76940;BME280;65885;55.848;35.916;2023-08-30T02:55:53;99244.97;;;15.66;79.68
76940;BME280;65885;55.848;35.916;2023-08-30T02:58:21;99252.25;;;15.63;79.76
76940;BME280;65885;55.848;35.916;2023-08-30T03:00:48;99264.69;;;15.61;79.93
76940;BME280;65885;55.848;35.916;2023-08-30T03:03:16;99265.47;;;15.63;79.96
76940;BME280;65885;55.848;35.916;2023-08-30T03:05:43;99258.00;;;15.69;80.37
76940;BME280;65885;55.848;35.916;2023-08-30T03:08:10;99260.78;;;15.80;80.42
76940;BME280;65885;55.848;35.916;2023-08-30T03:10:39;99264.63;;;15.89;80.36
76940;BME280;65885;55.848;35.916;2023-08-30T03:13:06;99267.72;;;15.96;80.13
76940;BME280;65885;55.848;35.916;2023-08-30T03:15:34;99261.38;;;15.98;79.72
76940;BME280;65885;55.848;35.916;2023-08-30T03:18:01;99258.81;;;15.97;79.34
76940;BME280;65885;55.848;35.916;2023-08-30T03:20:28;99260.72;;;15.95;79.27
76940;BME280;65885;55.848;35.916;2023-08-30T03:22:56;99261.75;;;15.92;79.22
76940;BME280;65885;55.848;35.916;2023-08-30T03:25:24;99256.69;;;15.89;79.23
76940;BME280;65885;55.848;35.916;2023-08-30T03:27:52;99251.81;;;15.83;79.21
76940;BME280;65885;55.848;35.916;2023-08-30T03:30:20;99264.28;;;15.81;79.45
76940;BME280;65885;55.848;35.916;2023-08-30T03:32:47;99265.41;;;15.77;79.34
76940;BME280;65885;55.848;35.916;2023-08-30T03:35:14;99264.56;;;15.76;79.56
76940;BME280;65885;55.848;35.916;2023-08-30T03:37:42;99268.28;;;15.74;79.69
76940;BME280;65885;55.848;35.916;2023-08-30T03:40:11;99278.00;;;15.73;79.83
76940;BME280;65885;55.848;35.916;2023-08-30T03:42:38;99280.75;;;15.72;79.83
76940;BME280;65885;55.848;35.916;2023-08-30T03:45:08;99278.97;;;15.72;80.06
76940;BME280;65885;55.848;35.916;2023-08-30T03:47:36;99285.84;;;15.75;80.18
76940;BME280;65885;55.848;35.916;2023-08-30T03:50:05;99275.25;;;15.75;80.18
76940;BME280;65885;55.848;35.916;2023-08-30T03:52:32;99270.91;;;15.74;80.30
76940;BME280;65885;55.848;35.916;2023-08-30T03:55:00;99271.03;;;15.72;80.34
76940;BME280;65885;55.848;35.916;2023-08-30T03:57:28;99262.03;;;15.75;80.43
76940;BME280;65885;55.848;35.916;2023-08-30T03:59:55;99279.19;;;15.82;80.64
76940;BME280;65885;55.848;35.916;2023-08-30T04:02:24;99280.28;;;15.92;80.77
76940;BME280;65885;55.848;35.916;2023-08-30T04:04:51;99291.00;;;16.03;80.67
76940;BME280;65885;55.848;35.916;2023-08-30T04:07:18;99290.41;;;16.13;80.65
76940;BME280;65885;55.848;35.916;2023-08-30T04:09:45;99290.72;;;16.21;80.32
76940;BME280;65885;55.848;35.916;2023-08-30T04:12:13;99290.50;;;16.24;79.72
76940;BME280;65885;55.848;35.916;2023-08-30T04:14:40;99298.38;;;16.25;79.21
76940;BME280;65885;55.848;35.916;2023-08-30T04:17:07;99302.06;;;16.23;79.05
76940;BME280;65885;55.848;35.916;2023-08-30T04:19:36;99292.63;;;16.19;78.77
76940;BME280;65885;55.848;35.916;2023-08-30T04:22:04;99285.94;;;16.13;79.00
76940;BME280;65885;55.848;35.916;2023-08-30T04:24:31;99276.22;;;16.14;79.51
76940;BME280;65885;55.848;35.916;2023-08-30T04:26:58;99268.16;;;16.15;79.64
76940;BME280;65885;55.848;35.916;2023-08-30T04:29:26;99271.66;;;16.16;79.71
76940;BME280;65885;55.848;35.916;2023-08-30T04:31:53;99277.78;;;16.16;79.96
76940;BME280;65885;55.848;35.916;2023-08-30T04:34:21;99263.63;;;16.17;79.96
76940;BME280;65885;55.848;35.916;2023-08-30T04:36:50;99262.69;;;16.18;80.32
76940;BME280;65885;55.848;35.916;2023-08-30T04:39:17;99271.38;;;16.20;80.33
76940;BME280;65885;55.848;35.916;2023-08-30T04:41:45;99279.19;;;16.22;80.30
76940;BME280;65885;55.848;35.916;2023-08-30T04:44:12;99268.41;;;16.25;80.36
76940;BME280;65885;55.848;35.916;2023-08-30T04:46:39;99276.25;;;16.26;80.49
76940;BME280;65885;55.848;35.916;2023-08-30T04:49:07;99284.19;;;16.26;80.47
76940;BME280;65885;55.848;35.916;2023-08-30T04:51:34;99293.81;;;16.27;80.37
76940;BME280;65885;55.848;35.916;2023-08-30T04:54:03;99292.97;;;16.27;80.27
76940;BME280;65885;55.848;35.916;2023-08-30T04:56:31;99283.84;;;16.31;80.29
76940;BME280;65885;55.848;35.916;2023-08-30T04:58:58;99274.56;;;16.38;80.41
76940;BME280;65885;55.848;35.916;2023-08-30T05:01:28;99275.31;;;16.53;80.53
76940;BME280;65885;55.848;35.916;2023-08-30T05:03:55;99265.56;;;16.66;80.33
76940;BME280;65885;55.848;35.916;2023-08-30T05:06:23;99268.88;;;16.82;80.14
76940;BME280;65885;55.848;35.916;2023-08-30T05:08:50;99264.19;;;16.99;80.01
76940;BME280;65885;55.848;35.916;2023-08-30T05:11:20;99261.41;;;17.13;79.86
76940;BME280;65885;55.848;35.916;2023-08-30T05:13:47;99266.88;;;17.23;79.46
76940;BME280;65885;55.848;35.916;2023-08-30T05:16:14;99281.41;;;17.30;78.96
76940;BME280;65885;55.848;35.916;2023-08-30T05:18:41;99284.56;;;17.35;78.86
76940;BME280;65885;55.848;35.916;2023-08-30T05:21:09;99284.25;;;17.39;78.79
76940;BME280;65885;55.848;35.916;2023-08-30T05:23:36;99279.56;;;17.43;78.41
76940;BME280;65885;55.848;35.916;2023-08-30T05:26:03;99281.06;;;17.47;78.59
76940;BME280;65885;55.848;35.916;2023-08-30T05:28:32;99275.41;;;17.52;78.62
76940;BME280;65885;55.848;35.916;2023-08-30T05:30:59;99275.91;;;17.57;78.88
76940;BME280;65885;55.848;35.916;2023-08-30T05:33:27;99265.06;;;17.60;78.71
76940;BME280;65885;55.848;35.916;2023-08-30T05:35:54;99268.13;;;17.66;78.90
76940;BME280;65885;55.848;35.916;2023-08-30T05:38:21;99263.13;;;17.74;79.10
76940;BME280;65885;55.848;35.916;2023-08-30T05:40:49;99269.69;;;17.82;79.36
76940;BME280;65885;55.848;35.916;2023-08-30T05:43:16;99261.50;;;17.85;79.10
76940;BME280;65885;55.848;35.916;2023-08-30T05:45:45;99251.50;;;17.88;78.63
76940;BME280;65885;55.848;35.916;2023-08-30T05:48:12;99255.63;;;17.92;78.35
76940;BME280;65885;55.848;35.916;2023-08-30T05:50:39;99249.84;;;17.98;78.41
76940;BME280;65885;55.848;35.916;2023-08-30T05:53:06;99247.59;;;18.05;78.37
76940;BME280;65885;55.848;35.916;2023-08-30T05:55:34;99240.84;;;18.12;78.40
76940;BME280;65885;55.848;35.916;2023-08-30T05:58:01;99247.38;;;18.19;78.18
76940;BME280;65885;55.848;35.916;2023-08-30T06:00:28;99238.25;;;18.23;77.35
76940;BME280;65885;55.848;35.916;2023-08-30T06:02:57;99236.06;;;18.28;76.89
76940;BME280;65885;55.848;35.916;2023-08-30T06:05:25;99230.28;;;18.35;77.00
76940;BME280;65885;55.848;35.916;2023-08-30T06:07:52;99220.88;;;18.42;76.74
76940;BME280;65885;55.848;35.916;2023-08-30T06:10:20;99229.94;;;18.50;76.62
76940;BME280;65885;55.848;35.916;2023-08-30T06:12:47;99240.94;;;18.57;76.42
76940;BME280;65885;55.848;35.916;2023-08-30T06:15:14;99239.06;;;18.70;77.17
76940;BME280;65885;55.848;35.916;2023-08-30T06:17:42;99241.00;;;18.79;77.23
76940;BME280;65885;55.848;35.916;2023-08-30T06:20:11;99248.84;;;18.81;76.66
76940;BME280;65885;55.848;35.916;2023-08-30T06:22:38;99257.19;;;18.88;76.40
76940;BME280;65885;55.848;35.916;2023-08-30T06:25:08;99264.94;;;18.91;76.36
76940;BME280;65885;55.848;35.916;2023-08-30T06:27:41;99259.59;;;18.91;75.39
76940;BME280;65885;55.848;35.916;2023-08-30T06:30:10;99263.13;;;18.91;74.89
76940;BME280;65885;55.848;35.916;2023-08-30T06:32:37;99267.34;;;18.94;75.03
76940;BME280;65885;55.848;35.916;2023-08-30T06:35:05;99270.22;;;19.02;75.06
76940;BME280;65885;55.848;35.916;2023-08-30T06:37:33;99266.59;;;19.14;75.68
76940;BME280;65885;55.848;35.916;2023-08-30T06:40:01;99272.50;;;19.29;76.18
76940;BME280;65885;55.848;35.916;2023-08-30T06:42:29;99271.41;;;19.43;75.63
76940;BME280;65885;55.848;35.916;2023-08-30T06:44:56;99274.88;;;19.54;74.63
76940;BME280;65885;55.848;35.916;2023-08-30T06:47:24;99279.25;;;19.66;74.52
76940;BME280;65885;55.848;35.916;2023-08-30T06:49:51;99294.59;;;19.74;73.95
76940;BME280;65885;55.848;35.916;2023-08-30T06:52:19;99292.97;;;19.83;74.71
76940;BME280;65885;55.848;35.916;2023-08-30T06:54:48;99299.63;;;19.88;75.49
76940;BME280;65885;55.848;35.916;2023-08-30T06:57:15;99304.22;;;19.86;75.12
76940;BME280;65885;55.848;35.916;2023-08-30T06:59:42;99296.75;;;19.80;74.58
76940;BME280;65885;55.848;35.916;2023-08-30T07:02:10;99289.25;;;19.74;74.64
76940;BME280;65885;55.848;35.916;2023-08-30T07:04:37;99283.72;;;19.66;74.35
76940;BME280;65885;55.848;35.916;2023-08-30T07:07:04;99293.75;;;19.62;74.76
76940;BME280;65885;55.848;35.916;2023-08-30T07:09:32;99296.03;;;19.56;74.51
76940;BME280;65885;55.848;35.916;2023-08-30T07:12:00;99289.28;;;19.52;74.28
76940;BME280;65885;55.848;35.916;2023-08-30T07:14:28;99307.91;;;19.52;74.74
76940;BME280;65885;55.848;35.916;2023-08-30T07:16:55;99304.53;;;19.50;73.96
76940;BME280;65885;55.848;35.916;2023-08-30T07:19:22;99288.09;;;19.45;72.95
76940;BME280;65885;55.848;35.916;2023-08-30T07:21:49;99297.50;;;19.49;72.86
76940;BME280;65885;55.848;35.916;2023-08-30T07:24:17;99295.31;;;19.54;72.94
76940;BME280;65885;55.848;35.916;2023-08-30T07:26:45;99309.00;;;19.60;73.19
76940;BME280;65885;55.848;35.916;2023-08-30T07:29:13;99312.38;;;19.74;73.68
76940;BME280;65885;55.848;35.916;2023-08-30T07:31:41;99304.75;;;19.80;73.35
76940;BME280;65885;55.848;35.916;2023-08-30T07:34:08;99295.25;;;19.87;73.41
76940;BME280;65885;55.848;35.916;2023-08-30T07:36:35;99303.34;;;19.97;73.29
76940;BME280;65885;55.848;35.916;2023-08-30T07:39:03;99296.53;;;20.04;73.01
76940;BME280;65885;55.848;35.916;2023-08-30T07:41:33;99296.97;;;20.09;72.19
76940;BME280;65885;55.848;35.916;2023-08-30T07:44:01;99304.09;;;20.20;72.23
76940;BME280;65885;55.848;35.916;2023-08-30T07:46:30;99313.47;;;20.35;72.54
76940;BME280;65885;55.848;35.916;2023-08-30T07:48:58;99315.59;;;20.53;73.15
76940;BME280;65885;55.848;35.916;2023-08-30T07:51:25;99326.38;;;20.72;74.23
76940;BME280;65885;55.848;35.916;2023-08-30T07:53:52;99318.06;;;20.86;73.28
76940;BME280;65885;55.848;35.916;2023-08-30T07:56:19;99323.75;;;21.02;73.25
76940;BME280;65885;55.848;35.916;2023-08-30T07:58:47;99323.13;;;21.20;72.60
76940;BME280;65885;55.848;35.916;2023-08-30T08:01:15;99316.91;;;21.40;73.24
76940;BME280;65885;55.848;35.916;2023-08-30T08:03:43;99321.28;;;21.51;71.22
76940;BME280;65885;55.848;35.916;2023-08-30T08:06:10;99324.41;;;21.56;68.96
76940;BME280;65885;55.848;35.916;2023-08-30T08:08:38;99313.31;;;21.60;67.57
76940;BME280;65885;55.848;35.916;2023-08-30T08:11:05;99309.38;;;21.65;66.70
76940;BME280;65885;55.848;35.916;2023-08-30T08:13:33;99325.72;;;21.71;66.77
76940;BME280;65885;55.848;35.916;2023-08-30T08:16:00;99324.03;;;21.70;66.15
76940;BME280;65885;55.848;35.916;2023-08-30T08:18:27;99319.25;;;21.74;66.52
76940;BME280;65885;55.848;35.916;2023-08-30T08:20:56;99320.53;;;21.79;67.26
76940;BME280;65885;55.848;35.916;2023-08-30T08:23:23;99321.06;;;21.83;66.49
76940;BME280;65885;55.848;35.916;2023-08-30T08:25:57;99321.81;;;21.85;65.60
76940;BME280;65885;55.848;35.916;2023-08-30T08:28:24;99315.88;;;21.91;64.91
76940;BME280;65885;55.848;35.916;2023-08-30T08:30:52;99319.44;;;22.01;65.30
76940;BME280;65885;55.848;35.916;2023-08-30T08:33:19;99316.63;;;22.12;66.32
76940;BME280;65885;55.848;35.916;2023-08-30T08:35:48;99322.41;;;22.27;68.09
76940;BME280;65885;55.848;35.916;2023-08-30T08:38:17;99326.34;;;22.33;66.87
76940;BME280;65885;55.848;35.916;2023-08-30T08:40:45;99327.47;;;22.40;66.70
76940;BME280;65885;55.848;35.916;2023-08-30T08:43:12;99333.09;;;22.47;67.22
76940;BME280;65885;55.848;35.916;2023-08-30T08:45:39;99340.28;;;22.46;64.73
76940;BME280;65885;55.848;35.916;2023-08-30T08:48:07;99346.47;;;22.47;64.58
76940;BME280;65885;55.848;35.916;2023-08-30T08:50:34;99340.69;;;22.41;64.14
76940;BME280;65885;55.848;35.916;2023-08-30T08:53:02;99340.25;;;22.36;64.04
76940;BME280;65885;55.848;35.916;2023-08-30T08:55:32;99349.41;;;22.34;63.84
76940;BME280;65885;55.848;35.916;2023-08-30T08:58:02;99344.38;;;22.31;63.90
76940;BME280;65885;55.848;35.916;2023-08-30T09:02:58;99344.06;;;22.34;65.45
76940;BME280;65885;55.848;35.916;2023-08-30T09:05:27;99348.16;;;22.38;65.51
76940;BME280;65885;55.848;35.916;2023-08-30T09:07:55;99356.88;;;22.40;64.06
76940;BME280;65885;55.848;35.916;2023-08-30T09:10:23;99355.34;;;22.47;65.42
76940;BME280;65885;55.848;35.916;2023-08-30T09:12:51;99360.38;;;22.50;64.11
76940;BME280;65885;55.848;35.916;2023-08-30T09:15:19;99363.06;;;22.60;64.34
76940;BME280;65885;55.848;35.916;2023-08-30T09:17:48;99362.78;;;22.63;63.32
76940;BME280;65885;55.848;35.916;2023-08-30T09:20:15;99361.63;;;22.65;63.31
76940;BME280;65885;55.848;35.916;2023-08-30T09:22:44;99358.25;;;22.73;64.42
76940;BME280;65885;55.848;35.916;2023-08-30T09:25:23;99365.16;;;22.85;64.54
76940;BME280;65885;55.848;35.916;2023-08-30T09:27:57;99366.09;;;23.04;65.09
76940;BME280;65885;55.848;35.916;2023-08-30T09:30:25;99364.22;;;23.23;65.35
76940;BME280;65885;55.848;35.916;2023-08-30T09:32:52;99371.31;;;23.42;64.34
76940;BME280;65885;55.848;35.916;2023-08-30T09:35:20;99373.41;;;23.58;63.61
76940;BME280;65885;55.848;35.916;2023-08-30T09:37:48;99377.56;;;23.70;62.17
76940;BME280;65885;55.848;35.916;2023-08-30T09:40:18;99375.56;;;23.82;62.03
76940;BME280;65885;55.848;35.916;2023-08-30T09:42:46;99380.16;;;23.90;61.26
76940;BME280;65885;55.848;35.916;2023-08-30T09:45:21;99381.09;;;23.98;62.08
76940;BME280;65885;55.848;35.916;2023-08-30T09:47:49;99381.09;;;23.98;61.15
76940;BME280;65885;55.848;35.916;2023-08-30T09:50:18;99381.09;;;23.98;61.05
76940;BME280;65885;55.848;35.916;2023-08-30T09:52:47;99388.28;;;23.98;59.34
76940;BME280;65885;55.848;35.916;2023-08-30T09:55:15;99388.97;;;24.00;60.98
76940;BME280;65885;55.848;35.916;2023-08-30T09:57:42;99398.69;;;24.01;60.26
76940;BME280;65885;55.848;35.916;2023-08-30T10:00:11;99396.88;;;24.01;61.29
76940;BME280;65885;55.848;35.916;2023-08-30T10:02:41;99391.75;;;24.08;62.36
76940;BME280;65885;55.848;35.916;2023-08-30T10:05:09;99392.38;;;24.20;62.85
76940;BME280;65885;55.848;35.916;2023-08-30T10:07:37;99394.41;;;24.35;64.14
76940;BME280;65885;55.848;35.916;2023-08-30T10:10:06;99405.91;;;24.46;62.42
76940;BME280;65885;55.848;35.916;2023-08-30T10:12:34;99398.06;;;24.70;63.55
76940;BME280;65885;55.848;35.916;2023-08-30T10:15:02;99393.88;;;24.94;64.50
76940;BME280;65885;55.848;35.916;2023-08-30T10:17:32;99395.75;;;25.11;61.43
76940;BME280;65885;55.848;35.916;2023-08-30T10:20:04;99400.63;;;25.41;61.73
76940;BME280;65885;55.848;35.916;2023-08-30T10:22:35;99404.94;;;25.68;59.90
76940;BME280;65885;55.848;35.916;2023-08-30T10:25:06;99403.25;;;25.93;59.74
76940;BME280;65885;55.848;35.916;2023-08-30T10:27:37;99409.31;;;26.04;58.77
76940;BME280;65885;55.848;35.916;2023-08-30T10:30:07;99413.03;;;26.11;58.85
76940;BME280;65885;55.848;35.916;2023-08-30T10:32:39;99417.25;;;26.13;58.33
76940;BME280;65885;55.848;35.916;2023-08-30T10:35:10;99412.38;;;26.09;56.74
76940;BME280;65885;55.848;35.916;2023-08-30T10:37:39;99422.59;;;26.05;57.08
76940;BME280;65885;55.848;35.916;2023-08-30T10:40:08;99440.88;;;25.93;55.37
76940;BME280;65885;55.848;35.916;2023-08-30T10:42:36;99437.75;;;25.72;54.11
76940;BME280;65885;55.848;35.916;2023-08-30T10:45:05;99449.66;;;25.43;55.36
76940;BME280;65885;55.848;35.916;2023-08-30T10:47:35;99446.13;;;25.17;55.03
76940;BME280;65885;55.848;35.916;2023-08-30T10:53:41;99442.38;;;24.74;59.98
76940;BME280;65885;55.848;35.916;2023-08-30T10:56:12;99439.00;;;24.54;58.97
76940;BME280;65885;55.848;35.916;2023-08-30T10:58:41;99423.75;;;24.37;59.63
76940;BME280;65885;55.848;35.916;2023-08-30T11:01:10;99413.50;;;24.23;59.62
76940;BME280;65885;55.848;35.916;2023-08-30T11:03:40;99412.03;;;24.11;59.55
76940;BME280;65885;55.848;35.916;2023-08-30T11:06:07;99408.13;;;24.05;60.52
76940;BME280;65885;55.848;35.916;2023-08-30T11:08:35;99411.41;;;23.99;60.16
76940;BME280;65885;55.848;35.916;2023-08-30T11:11:07;99405.66;;;23.94;60.69
76940;BME280;65885;55.848;35.916;2023-08-30T11:13:36;99389.56;;;23.94;63.01
76940;BME280;65885;55.848;35.916;2023-08-30T11:16:04;99387.88;;;23.93;62.78
76940;BME280;65885;55.848;35.916;2023-08-30T11:18:36;99377.19;;;23.93;62.89
76940;BME280;65885;55.848;35.916;2023-08-30T11:21:05;99372.38;;;23.96;61.85
76940;BME280;65885;55.848;35.916;2023-08-30T11:23:33;99360.06;;;24.03;60.14
76940;BME280;65885;55.848;35.916;2023-08-30T11:26:01;99345.91;;;24.11;59.76
76940;BME280;65885;55.848;35.916;2023-08-30T11:28:31;99345.97;;;24.19;59.50
76940;BME280;65885;55.848;35.916;2023-08-30T11:30:58;99332.66;;;24.27;58.78
76940;BME280;65885;55.848;35.916;2023-08-30T11:33:26;99331.19;;;24.33;60.30
76940;BME280;65885;55.848;35.916;2023-08-30T11:35:53;99350.94;;;24.32;60.73
76940;BME280;65885;55.848;35.916;2023-08-30T11:38:21;99373.25;;;24.32;61.54
76940;BME280;65885;55.848;35.916;2023-08-30T11:40:49;99378.38;;;24.26;60.14
76940;BME280;65885;55.848;35.916;2023-08-30T11:43:18;99381.50;;;24.21;60.20
76940;BME280;65885;55.848;35.916;2023-08-30T11:45:47;99377.31;;;24.19;61.42
76940;BME280;65885;55.848;35.916;2023-08-30T11:48:22;99350.53;;;24.09;59.37
76940;BME280;65885;55.848;35.916;2023-08-30T11:50:49;99330.03;;;24.00;58.65
76940;BME280;65885;55.848;35.916;2023-08-30T11:53:17;99331.19;;;23.97;61.09
76940;BME280;65885;55.848;35.916;2023-08-30T11:55:45;99333.69;;;23.99;62.92
76940;BME280;65885;55.848;35.916;2023-08-30T11:58:13;99327.25;;;23.92;61.39
76940;BME280;65885;55.848;35.916;2023-08-30T12:00:40;99320.13;;;23.83;61.83
76940;BME280;65885;55.848;35.916;2023-08-30T12:03:09;99328.63;;;23.78;63.36
76940;BME280;65885;55.848;35.916;2023-08-30T12:05:44;99336.13;;;23.74;61.77
76940;BME280;65885;55.848;35.916;2023-08-30T12:08:18;99325.41;;;23.74;62.33
76940;BME280;65885;55.848;35.916;2023-08-30T12:10:45;99337.81;;;23.75;63.31
76940;BME280;65885;55.848;35.916;2023-08-30T12:13:23;99326.53;;;23.72;62.20
76940;BME280;65885;55.848;35.916;2023-08-30T12:15:51;99321.19;;;23.72;62.35
76940;BME280;65885;55.848;35.916;2023-08-30T12:18:22;99321.34;;;23.70;61.23
76940;BME280;65885;55.848;35.916;2023-08-30T12:20:54;99323.56;;;23.75;62.29
76940;BME280;65885;55.848;35.916;2023-08-30T12:23:24;99313.69;;;23.75;61.11
76940;BME280;65885;55.848;35.916;2023-08-30T12:25:58;99310.50;;;23.90;64.98
76940;BME280;65885;55.848;35.916;2023-08-30T12:28:26;99307.34;;;23.94;63.35
76940;BME280;65885;55.848;35.916;2023-08-30T12:30:54;99287.59;;;23.95;61.20
76940;BME280;65885;55.848;35.916;2023-08-30T12:33:24;99285.78;;;23.96;61.06
76940;BME280;65885;55.848;35.916;2023-08-30T12:35:52;99282.09;;;23.97;60.82
76940;BME280;65885;55.848;35.916;2023-08-30T12:38:20;99276.75;;;23.97;60.63
76940;BME280;65885;55.848;35.916;2023-08-30T12:40:48;99277.28;;;24.00;61.12
76940;BME280;65885;55.848;35.916;2023-08-30T12:43:16;99271.06;;;24.00;60.90
76940;BME280;65885;55.848;35.916;2023-08-30T12:45:45;99262.34;;;23.98;61.12
76940;BME280;65885;55.848;35.916;2023-08-30T12:48:14;99267.47;;;23.91;61.24
76940;BME280;65885;55.848;35.916;2023-08-30T12:50:44;99265.63;;;23.92;62.52
76940;BME280;65885;55.848;35.916;2023-08-30T12:53:12;99259.28;;;23.93;62.73
76940;BME280;65885;55.848;35.916;2023-08-30T12:55:39;99266.09;;;23.87;62.72
76940;BME280;65885;55.848;35.916;2023-08-30T12:58:07;99265.25;;;23.87;62.83
76940;BME280;65885;55.848;35.916;2023-08-30T13:00:34;99259.75;;;23.88;63.21
76940;BME280;65885;55.848;35.916;2023-08-30T13:03:02;99252.25;;;23.92;64.35